createdAt,value
2023-04-19T00:00:17.273Z,2.20
2023-04-19T00:02:44.381Z,2.40
2023-04-19T00:05:13.651Z,3.53
2023-04-19T00:07:40.862Z,2.43
2023-04-19T00:10:08.420Z,2.17
2023-04-19T00:12:36.398Z,2.20
2023-04-19T00:15:03.466Z,3.23
2023-04-19T00:17:34.306Z,2.70
2023-04-19T00:20:01.533Z,2.80
2023-04-19T00:22:31.572Z,2.30
2023-04-19T00:24:58.553Z,3.60
2023-04-19T00:27:25.678Z,3.30
2023-04-19T00:29:52.856Z,4.17
2023-04-19T00:32:20.013Z,3.03
2023-04-19T00:34:48.085Z,3.30
2023-04-19T00:37:15.076Z,3.40
2023-04-19T00:39:42.297Z,2.30
2023-04-19T00:42:09.392Z,4.10
2023-04-19T00:44:36.421Z,2.90
2023-04-19T00:47:03.405Z,2.93
2023-04-19T00:49:30.759Z,4.63
2023-04-19T00:51:57.990Z,3.23
2023-04-19T00:54:25.110Z,3.40
2023-04-19T00:56:52.288Z,3.43
2023-04-19T00:59:19.414Z,3.37
2023-04-19T01:01:46.536Z,3.33
2023-04-19T01:04:14.343Z,2.73
2023-04-19T01:06:42.056Z,4.90
2023-04-19T01:09:11.956Z,4.23
2023-04-19T01:11:43.414Z,4.47
2023-04-19T01:14:10.787Z,4.50
2023-04-19T01:16:39.203Z,5.90
2023-04-19T01:19:06.593Z,5.53
2023-04-19T01:21:38.346Z,6.13
2023-04-19T01:24:06.093Z,5.07
2023-04-19T01:26:33.072Z,3.50
2023-04-19T01:29:03.313Z,3.70
2023-04-19T01:31:30.283Z,3.13
2023-04-19T01:33:57.250Z,3.27
2023-04-19T01:36:24.168Z,2.50
2023-04-19T01:38:51.116Z,3.03
2023-04-19T01:41:18.095Z,2.97
2023-04-19T01:43:44.968Z,4.13
2023-04-19T01:46:11.866Z,3.37
2023-04-19T01:48:38.810Z,2.93
2023-04-19T01:51:05.933Z,3.10
2023-04-19T01:53:35.410Z,2.77
2023-04-19T01:56:02.413Z,4.73
2023-04-19T01:58:29.344Z,2.33
2023-04-19T02:00:56.603Z,2.40
2023-04-19T02:03:23.713Z,1.87
2023-04-19T02:05:50.784Z,2.47
2023-04-19T02:08:19.971Z,2.17
2023-04-19T02:10:46.917Z,2.23
2023-04-19T02:13:13.938Z,4.60
2023-04-19T02:15:40.908Z,2.13
2023-04-19T02:18:29.791Z,3.00
2023-04-19T02:20:57.675Z,2.47
2023-04-19T02:23:25.569Z,2.03
2023-04-19T02:25:52.614Z,1.73
2023-04-19T02:28:19.627Z,1.87
2023-04-19T02:30:46.787Z,2.10
2023-04-19T02:33:13.738Z,2.53
2023-04-19T02:35:40.700Z,4.27
2023-04-19T02:38:07.667Z,3.57
2023-04-19T02:40:34.660Z,2.17
2023-04-19T02:43:01.507Z,2.57
2023-04-19T02:45:28.485Z,3.17
2023-04-19T02:47:55.574Z,4.17
2023-04-19T02:50:23.979Z,8.27
2023-04-19T02:52:51.909Z,6.23
2023-04-19T02:55:20.556Z,5.37
2023-04-19T02:57:52.523Z,5.67
2023-04-19T03:00:19.612Z,5.07
2023-04-19T03:03:00.106Z,4.07
2023-04-19T03:05:29.063Z,3.97
2023-04-19T03:07:56.046Z,5.23
2023-04-19T03:10:23.032Z,3.20
2023-04-19T03:12:49.913Z,2.97
2023-04-19T03:15:18.779Z,3.53
2023-04-19T03:17:45.874Z,3.10
2023-04-19T03:20:13.147Z,3.00
2023-04-19T03:22:41.194Z,3.07
2023-04-19T03:25:08.958Z,3.10
2023-04-19T03:27:36.841Z,2.57
2023-04-19T03:30:08.698Z,5.77
2023-04-19T03:32:35.847Z,5.53
2023-04-19T03:35:03.878Z,6.47
2023-04-19T03:37:32.346Z,6.63
2023-04-19T03:39:59.607Z,8.87
2023-04-19T03:42:33.137Z,7.90
2023-04-19T03:45:11.431Z,5.03
2023-04-19T03:47:42.251Z,3.60
2023-04-19T03:50:10.492Z,3.27
2023-04-19T03:52:39.107Z,4.20
2023-04-19T03:55:06.941Z,4.37
2023-04-19T03:57:38.191Z,2.90
2023-04-19T04:00:14.401Z,3.97
2023-04-19T04:02:42.572Z,3.87
2023-04-19T04:05:12.106Z,4.90
2023-04-19T04:07:39.351Z,5.03
2023-04-19T04:10:07.638Z,4.53
2023-04-19T04:12:40.159Z,3.17
2023-04-19T04:15:10.149Z,2.83
2023-04-19T04:17:42.850Z,3.40
2023-04-19T04:20:13.565Z,3.13
2023-04-19T04:22:43.510Z,4.27
2023-04-19T04:25:16.815Z,3.50
2023-04-19T04:27:44.827Z,2.80
2023-04-19T04:30:16.129Z,3.13
2023-04-19T04:32:45.101Z,3.77
2023-04-19T04:35:12.300Z,2.73
2023-04-19T04:37:59.962Z,1.63
2023-04-19T04:40:27.233Z,1.43
2023-04-19T04:42:54.230Z,1.90
2023-04-19T04:45:21.363Z,1.30
2023-04-19T04:47:51.607Z,1.90
2023-04-19T04:50:19.472Z,1.30
2023-04-19T04:52:48.690Z,1.00
2023-04-19T04:55:20.845Z,1.53
2023-04-19T04:57:48.394Z,0.93
2023-04-19T05:00:23.195Z,0.70
2023-04-19T05:03:00.876Z,1.27
2023-04-19T05:05:30.156Z,0.90
2023-04-19T05:07:57.190Z,1.87
2023-04-19T05:10:24.466Z,1.23
2023-04-19T05:12:53.012Z,2.03
2023-04-19T05:15:20.251Z,3.30
2023-04-19T05:17:53.735Z,1.60
2023-04-19T05:20:22.453Z,1.57
2023-04-19T05:22:59.597Z,1.03
2023-04-19T05:25:27.220Z,0.97
2023-04-19T05:27:54.882Z,0.83
2023-04-19T05:30:22.530Z,1.63
2023-04-19T05:32:52.795Z,1.00
2023-04-19T05:35:20.322Z,0.97
2023-04-19T05:37:47.671Z,2.23
2023-04-19T05:40:14.888Z,1.37
2023-04-19T05:42:42.193Z,2.07
2023-04-19T05:45:10.088Z,2.03
2023-04-19T05:47:37.224Z,2.57
2023-04-19T05:50:18.368Z,2.80
2023-04-19T05:52:53.876Z,3.20
2023-04-19T05:55:21.419Z,3.53
2023-04-19T05:57:48.496Z,5.83
2023-04-19T06:00:16.321Z,5.03
2023-04-19T06:02:53.403Z,6.60
2023-04-19T06:05:21.238Z,3.70
2023-04-19T06:07:55.002Z,5.57
2023-04-19T06:10:31.282Z,3.53
2023-04-19T06:13:04.905Z,4.27
2023-04-19T06:15:32.106Z,5.47
2023-04-19T06:17:59.975Z,5.10
2023-04-19T06:20:27.163Z,6.73
2023-04-19T06:22:54.412Z,7.00
2023-04-19T06:25:21.518Z,5.43
2023-04-19T06:27:48.484Z,5.13
2023-04-19T06:30:15.567Z,2.40
2023-04-19T06:32:42.638Z,1.17
2023-04-19T06:35:10.091Z,1.10
2023-04-19T06:37:37.208Z,2.73
2023-04-19T06:40:08.450Z,1.77
2023-04-19T06:42:36.009Z,1.40
2023-04-19T06:45:03.476Z,2.40
2023-04-19T06:47:35.441Z,2.20
2023-04-19T06:50:02.924Z,1.30
2023-04-19T06:52:30.542Z,0.93
2023-04-19T06:54:57.526Z,2.13
2023-04-19T06:57:25.051Z,1.10
2023-04-19T06:59:52.113Z,3.63
2023-04-19T07:02:19.096Z,2.03
2023-04-19T07:04:47.737Z,3.60
2023-04-19T07:07:14.812Z,2.33
2023-04-19T07:09:41.780Z,4.30
2023-04-19T07:12:08.826Z,6.60
2023-04-19T07:14:35.820Z,4.07
2023-04-19T07:17:05.009Z,8.63
2023-04-19T07:19:32.154Z,2.13
2023-04-19T07:21:59.119Z,1.93
2023-04-19T07:24:27.933Z,4.27
2023-04-19T07:26:54.912Z,1.60
2023-04-19T07:29:24.827Z,1.13
2023-04-19T07:31:55.497Z,3.30
2023-04-19T07:34:22.665Z,12.80
2023-04-19T07:36:49.548Z,4.00
2023-04-19T07:39:16.693Z,3.07
2023-04-19T07:41:49.582Z,1.13
2023-04-19T07:44:17.049Z,1.83
2023-04-19T07:46:45.445Z,1.80
2023-04-19T07:49:12.402Z,1.90
2023-04-19T07:51:39.387Z,5.60
2023-04-19T07:54:07.016Z,3.63
2023-04-19T07:56:33.997Z,3.43
2023-04-19T07:59:08.399Z,2.93
2023-04-19T08:01:37.133Z,1.37
2023-04-19T08:04:04.948Z,2.10
2023-04-19T08:06:32.643Z,6.40
2023-04-19T08:08:59.752Z,4.50
2023-04-19T08:11:27.274Z,2.53
2023-04-19T08:14:06.898Z,5.37
2023-04-19T08:17:21.393Z,1.90
2023-04-19T08:19:28.448Z,2.63
2023-04-19T08:21:55.721Z,2.60
2023-04-19T08:24:23.292Z,2.00
2023-04-19T08:26:54.104Z,1.33
2023-04-19T08:29:22.319Z,1.20
2023-04-19T08:31:49.710Z,1.87
2023-04-19T08:34:16.768Z,2.53
2023-04-19T08:36:51.848Z,1.67
2023-04-19T08:39:32.531Z,5.43
2023-04-19T08:42:11.073Z,2.43
2023-04-19T08:45:13.204Z,1.87
2023-04-19T08:47:56.278Z,2.60
2023-04-19T08:50:33.349Z,2.03
2023-04-19T08:53:16.374Z,3.73
2023-04-19T08:58:28.842Z,1.83
2023-04-19T09:01:12.820Z,3.40
2023-04-19T09:04:01.361Z,5.47
2023-04-19T09:06:36.737Z,2.83
2023-04-19T09:11:51.812Z,4.57
2023-04-19T09:14:20.474Z,3.63
2023-04-19T09:16:48.082Z,6.27
2023-04-19T09:19:24.119Z,3.20
2023-04-19T09:21:54.840Z,4.70
2023-04-19T09:27:13.580Z,4.13
2023-04-19T09:29:40.605Z,3.03
2023-04-19T09:32:07.682Z,6.27
2023-04-19T09:34:34.595Z,12.60
2023-04-19T09:37:21.536Z,8.93
2023-04-19T09:39:59.976Z,6.37
2023-04-19T09:48:01.411Z,3.50
2023-04-19T09:50:28.979Z,3.87
2023-04-19T09:52:56.365Z,4.17
2023-04-19T09:55:27.531Z,3.83
2023-04-19T09:57:55.841Z,3.17
2023-04-19T10:00:23.383Z,6.03
2023-04-19T10:02:58.503Z,5.97
2023-04-19T10:05:26.722Z,5.33
2023-04-19T10:07:59.538Z,2.97
2023-04-19T10:10:41.334Z,4.50
2023-04-19T10:13:19.758Z,3.20
2023-04-19T10:16:01.773Z,6.70
2023-04-19T10:18:35.953Z,3.37
2023-04-19T10:21:08.404Z,4.23
2023-04-19T10:23:37.309Z,3.63
2023-04-19T10:26:04.379Z,5.57
2023-04-19T10:28:31.340Z,2.80
2023-04-19T10:31:03.985Z,5.67
2023-04-19T10:33:36.484Z,3.23
2023-04-19T10:36:04.986Z,2.70
2023-04-19T10:38:36.892Z,4.00
2023-04-19T10:41:05.560Z,6.57
2023-04-19T10:43:34.678Z,3.13
2023-04-19T10:46:36.195Z,2.67
2023-04-19T10:49:05.327Z,6.43
2023-04-19T10:51:38.935Z,6.73
2023-04-19T10:54:32.370Z,4.83
2023-04-19T10:57:06.777Z,4.50
2023-04-19T10:59:35.335Z,4.33
2023-04-19T11:02:22.289Z,3.67
2023-04-19T11:04:49.326Z,5.67
2023-04-19T11:07:18.389Z,3.30
2023-04-19T11:09:46.624Z,4.53
2023-04-19T11:12:18.798Z,5.37
2023-04-19T11:14:47.862Z,5.00
2023-04-19T11:17:27.908Z,3.33
2023-04-19T11:20:13.586Z,4.07
2023-04-19T11:22:43.185Z,3.93
2023-04-19T11:25:20.942Z,4.13
2023-04-19T11:27:53.021Z,4.17
2023-04-19T11:30:23.171Z,4.60
2023-04-19T11:32:52.846Z,4.30
2023-04-19T11:35:21.635Z,4.43
2023-04-19T11:37:48.963Z,4.00
2023-04-19T11:40:21.901Z,5.07
2023-04-19T11:42:55.831Z,4.00
2023-04-19T11:45:33.087Z,5.43
2023-04-19T11:48:02.741Z,3.13
2023-04-19T11:50:35.266Z,2.50
2023-04-19T11:53:21.902Z,3.17
2023-04-19T11:55:54.708Z,4.47
2023-04-19T11:58:25.418Z,4.57
2023-04-19T12:00:52.526Z,3.63
2023-04-19T12:03:26.686Z,2.17
2023-04-19T12:05:59.163Z,3.23
2023-04-19T12:08:35.169Z,3.70
2023-04-19T12:11:03.696Z,2.27
2023-04-19T12:13:32.319Z,3.40
2023-04-19T12:16:00.615Z,10.60
2023-04-19T12:18:27.633Z,9.17
2023-04-19T12:20:55.056Z,5.37
2023-04-19T12:23:22.171Z,6.47
2023-04-19T12:25:50.066Z,3.30
2023-04-19T12:28:17.229Z,6.70
2023-04-19T12:30:44.324Z,3.17
2023-04-19T12:33:11.767Z,4.33
2023-04-19T12:35:39.284Z,6.83
2023-04-19T12:38:06.274Z,4.40
2023-04-19T12:40:38.926Z,3.07
2023-04-19T12:43:08.095Z,3.93
2023-04-19T12:45:35.161Z,6.97
2023-04-19T12:48:02.186Z,3.97
2023-04-19T12:50:29.304Z,3.20
2023-04-19T12:52:56.266Z,3.43
2023-04-19T12:55:23.353Z,2.43
2023-04-19T12:57:51.216Z,3.30
2023-04-19T13:00:19.400Z,4.33
2023-04-19T13:02:48.286Z,5.73
2023-04-19T13:05:15.932Z,2.97
2023-04-19T13:07:43.393Z,4.80
2023-04-19T13:10:10.890Z,5.17
2023-04-19T13:12:37.831Z,2.43
2023-04-19T13:15:05.441Z,3.30
2023-04-19T13:17:33.376Z,2.77
2023-04-19T13:20:00.295Z,2.90
2023-04-19T13:22:27.309Z,7.03
2023-04-19T13:24:54.217Z,7.50
2023-04-19T13:27:21.172Z,5.90
2023-04-19T13:29:48.172Z,5.70
2023-04-19T13:32:15.211Z,3.03
2023-04-19T13:34:42.383Z,4.77
2023-04-19T13:37:09.270Z,6.37
2023-04-19T13:39:37.292Z,12.77
2023-04-19T13:42:04.582Z,5.33
2023-04-19T13:44:32.004Z,2.80
2023-04-19T13:46:59.246Z,4.70
2023-04-19T13:49:26.570Z,3.83
2023-04-19T14:08:38.082Z,3.50
2023-04-19T14:11:05.237Z,4.13
2023-04-19T14:13:32.276Z,4.87
2023-04-19T14:15:59.257Z,4.67
2023-04-19T14:18:26.330Z,4.77
2023-04-19T14:20:53.495Z,11.03
2023-04-19T14:23:20.508Z,6.97
2023-04-19T14:25:47.544Z,4.10
2023-04-19T14:28:14.505Z,5.57
2023-04-19T14:30:41.562Z,3.03
2023-04-19T14:33:08.609Z,4.07
2023-04-19T14:35:35.637Z,4.13
2023-04-19T14:38:02.933Z,4.13
2023-04-19T14:40:30.222Z,10.10
2023-04-19T14:42:57.373Z,2.90
2023-04-19T14:45:24.505Z,2.80
2023-04-19T14:47:51.469Z,3.60
2023-04-19T14:50:18.488Z,5.13
2023-04-19T14:52:45.537Z,3.77
2023-04-19T14:55:12.843Z,3.90
2023-04-19T14:57:39.882Z,4.07
2023-04-19T15:00:08.025Z,3.10
2023-04-19T15:02:37.520Z,4.97
2023-04-19T15:05:05.400Z,5.73
2023-04-19T15:07:32.578Z,5.47
2023-04-19T15:09:59.428Z,3.40
2023-04-19T15:12:26.464Z,3.63
2023-04-19T15:14:53.398Z,4.77
2023-04-19T15:17:20.402Z,4.70
2023-04-19T15:19:47.425Z,10.85
2023-04-19T15:22:14.444Z,5.57
2023-04-19T15:24:41.477Z,4.13
2023-04-19T15:27:08.701Z,9.23
2023-04-19T15:29:35.660Z,11.03
2023-04-19T15:32:03.951Z,9.97
2023-04-19T15:34:31.363Z,5.50
2023-04-19T15:36:58.284Z,8.43
2023-04-19T15:39:25.522Z,5.53
2023-04-19T15:41:52.490Z,7.63
2023-04-19T15:44:19.956Z,9.83
2023-04-19T15:46:46.911Z,9.10
2023-04-19T15:49:18.230Z,5.43
2023-04-19T15:51:48.545Z,11.77
2023-04-19T15:54:18.201Z,5.80
2023-04-19T15:56:45.947Z,7.10
2023-04-19T15:59:13.115Z,5.10
2023-04-19T16:01:40.131Z,9.60
2023-04-19T16:04:07.540Z,9.20
2023-04-19T16:06:34.706Z,6.90
2023-04-19T16:09:01.561Z,9.03
2023-04-19T16:11:29.662Z,5.93
2023-04-19T16:13:56.667Z,6.37
2023-04-19T16:16:26.575Z,4.70
2023-04-19T16:18:53.618Z,8.03
2023-04-19T16:24:38.892Z,7.07
2023-04-19T16:27:06.100Z,4.43
2023-04-19T16:29:33.319Z,5.97
2023-04-19T16:32:00.668Z,3.43
2023-04-19T16:34:27.721Z,9.40
2023-04-19T16:36:54.685Z,4.67
2023-04-19T16:39:21.912Z,5.57
2023-04-19T16:41:48.976Z,5.80
2023-04-19T16:44:16.420Z,8.77
2023-04-19T16:46:43.809Z,10.10
2023-04-19T16:49:12.115Z,9.00
2023-04-19T16:51:40.150Z,5.53
2023-04-19T16:54:07.893Z,6.67
2023-04-19T16:56:37.626Z,7.00
2023-04-19T16:59:04.570Z,8.50
2023-04-19T17:01:31.546Z,8.53
2023-04-19T17:03:58.648Z,8.87
2023-04-19T17:06:26.337Z,8.73
2023-04-19T17:08:53.547Z,6.40
2023-04-19T17:11:20.642Z,10.23
2023-04-19T17:13:55.246Z,8.57
2023-04-19T17:16:24.366Z,7.73
2023-04-19T17:18:56.147Z,8.00
2023-04-19T17:21:23.239Z,10.20
2023-04-19T17:23:50.356Z,7.30
2023-04-19T17:26:17.786Z,9.23
2023-04-19T17:28:44.716Z,6.87
2023-04-19T17:31:12.054Z,7.77
2023-04-19T17:33:39.551Z,27.27
2023-04-19T17:36:07.003Z,11.47
2023-04-19T17:38:33.969Z,12.27
2023-04-19T17:41:02.836Z,9.87
2023-04-19T17:43:29.764Z,13.20
2023-04-19T17:45:58.058Z,12.90
2023-04-19T17:48:25.296Z,9.97
2023-04-19T17:50:52.406Z,12.73
2023-04-19T17:53:19.363Z,18.13
2023-04-19T17:55:46.544Z,11.17
2023-04-19T17:58:13.442Z,6.67
2023-04-19T18:00:40.997Z,10.47
2023-04-19T18:03:11.020Z,25.93
2023-04-19T18:05:41.658Z,18.97
2023-04-19T18:11:29.321Z,12.13
2023-04-19T18:13:56.388Z,12.23
2023-04-19T18:16:23.496Z,13.73
2023-04-19T18:18:50.788Z,14.27
2023-04-19T18:21:18.589Z,7.23
2023-04-19T18:23:46.087Z,9.07
2023-04-19T18:26:13.242Z,7.73
2023-04-19T18:28:40.402Z,10.63
2023-04-19T18:31:08.637Z,18.13
2023-04-19T18:33:36.487Z,12.97
2023-04-19T18:36:04.429Z,15.47
2023-04-19T18:38:32.220Z,8.03
2023-04-19T18:40:59.588Z,9.37
2023-04-19T18:43:28.882Z,8.97
2023-04-19T18:45:58.077Z,8.47
2023-04-19T18:48:28.082Z,26.30
2023-04-19T18:50:59.783Z,23.03
2023-04-19T18:53:30.904Z,18.30
2023-04-19T18:55:58.444Z,19.13
2023-04-19T18:58:30.238Z,19.87
2023-04-19T19:01:06.510Z,12.83
2023-04-19T19:06:04.357Z,18.80
2023-04-19T19:08:32.151Z,15.17
2023-04-19T19:13:42.163Z,10.10
2023-04-19T19:16:09.245Z,6.23
2023-04-19T19:18:36.391Z,13.90
2023-04-19T19:21:06.482Z,11.97
2023-04-19T19:23:36.157Z,5.93
2023-04-19T19:26:06.676Z,6.40
2023-04-19T19:28:34.409Z,9.33
2023-04-19T19:31:01.684Z,7.77
2023-04-19T19:33:28.997Z,8.20
2023-04-19T19:35:56.068Z,10.70
2023-04-19T19:38:23.140Z,12.80
2023-04-19T19:43:20.433Z,20.67
2023-04-19T19:45:48.339Z,12.20
2023-04-19T19:48:15.366Z,14.10
2023-04-19T19:53:18.847Z,12.13
2023-04-19T19:55:46.659Z,12.13
2023-04-19T19:58:39.420Z,14.93
2023-04-19T20:01:02.244Z,13.43
2023-04-19T20:03:37.794Z,19.20
2023-04-19T20:08:44.154Z,13.00
2023-04-19T20:11:12.916Z,14.80
2023-04-19T20:13:41.238Z,13.73
2023-04-19T20:16:10.153Z,6.90
2023-04-19T20:18:37.947Z,9.23
2023-04-19T20:21:05.125Z,8.23
2023-04-19T20:23:32.030Z,5.77
2023-04-19T20:26:01.181Z,5.70
2023-04-19T20:28:28.087Z,4.80
2023-04-19T20:30:55.902Z,7.03
2023-04-19T20:33:23.483Z,7.50
2023-04-19T20:35:50.628Z,9.93
2023-04-19T20:38:18.523Z,93.67
2023-04-19T20:40:45.851Z,155.70
2023-04-19T20:43:12.834Z,47.97
2023-04-19T20:45:42.351Z,30.43
2023-04-19T20:48:09.705Z,16.60
2023-04-19T20:50:36.798Z,17.93
2023-04-19T20:53:03.896Z,9.60
2023-04-19T20:55:30.901Z,7.73
2023-04-19T20:57:58.200Z,6.20
2023-04-19T21:00:25.437Z,5.97
2023-04-19T21:02:53.698Z,5.90
2023-04-19T21:05:20.984Z,6.20
2023-04-19T21:07:48.073Z,6.20
2023-04-19T21:10:17.249Z,5.37
2023-04-19T21:12:45.585Z,6.43
2023-04-19T21:15:12.583Z,6.20
2023-04-19T21:17:40.132Z,4.63
2023-04-19T21:20:12.429Z,4.87
2023-04-19T21:22:40.447Z,6.37
2023-04-19T21:25:09.833Z,7.90
2023-04-19T21:27:36.975Z,7.00
2023-04-19T21:30:08.253Z,5.23
2023-04-19T21:32:35.433Z,6.57
2023-04-19T21:35:02.684Z,6.13
2023-04-19T21:37:31.190Z,4.83
2023-04-19T21:39:58.189Z,5.97
2023-04-19T21:42:25.084Z,6.93
2023-04-19T21:44:52.102Z,6.33
2023-04-19T21:47:19.243Z,6.13
2023-04-19T21:49:47.151Z,5.10
2023-04-19T21:52:14.051Z,6.80
2023-04-19T21:54:41.030Z,6.67
2023-04-19T21:57:08.775Z,8.40
2023-04-19T21:59:35.933Z,6.93
2023-04-19T22:02:03.573Z,8.00
2023-04-19T22:04:31.213Z,5.43
2023-04-19T22:07:03.037Z,6.87
2023-04-19T22:09:30.798Z,5.70
2023-04-19T22:11:57.726Z,5.50
2023-04-19T22:14:24.727Z,6.30
2023-04-19T22:16:53.881Z,8.23
2023-04-19T22:19:21.198Z,7.70
2023-04-19T22:21:48.484Z,7.20
2023-04-19T22:24:15.869Z,5.63
2023-04-19T22:26:43.039Z,7.03
2023-04-19T22:29:10.053Z,6.13
2023-04-19T22:31:37.024Z,6.00
2023-04-19T22:34:04.042Z,6.13
2023-04-19T22:36:30.983Z,7.07
2023-04-19T22:38:57.999Z,6.83
2023-04-19T22:41:25.147Z,12.27
2023-04-19T22:43:52.442Z,7.27
2023-04-19T22:46:19.878Z,11.00
2023-04-19T22:48:48.256Z,8.60
2023-04-19T22:51:18.265Z,5.87
2023-04-19T22:53:45.426Z,46.90
2023-04-19T22:56:12.348Z,18.23
2023-04-19T22:58:39.375Z,17.47
2023-04-19T23:01:06.684Z,11.07
2023-04-19T23:03:33.850Z,11.93
2023-04-19T23:06:03.464Z,9.67
2023-04-19T23:08:30.961Z,8.57
2023-04-19T23:10:57.876Z,6.33
2023-04-19T23:13:24.795Z,7.20
2023-04-19T23:15:52.889Z,5.17
2023-04-19T23:18:21.356Z,6.23
2023-04-19T23:20:48.304Z,5.00
2023-04-19T23:23:15.494Z,7.20
2023-04-19T23:25:42.452Z,4.80
2023-04-19T23:28:11.174Z,9.03
2023-04-19T23:30:39.775Z,7.40
2023-04-19T23:33:07.403Z,9.13
2023-04-19T23:35:34.350Z,5.33
2023-04-19T23:38:01.315Z,7.13
2023-04-19T23:40:28.276Z,6.60
2023-04-19T23:42:55.317Z,6.83
2023-04-19T23:45:22.648Z,6.40
2023-04-19T23:47:50.127Z,6.10
2023-04-19T23:50:17.103Z,9.23
2023-04-19T23:52:44.081Z,8.00
2023-04-19T23:55:11.039Z,6.50
2023-04-19T23:57:38.117Z,7.33
